sensor_id;sensor_type;location;lat;lon;timestamp;P1;durP1;ratioP1;P2;durP2;ratioP2
51048;SDS011;37084;55.228;36.450;2023-04-06T00:00:26;8.82;;;5.00;;
51048;SDS011;37084;55.228;36.450;2023-04-06T00:03:28;9.90;;;5.40;;
51048;SDS011;37084;55.228;36.450;2023-04-06T00:06:29;13.02;;;5.60;;
51048;SDS011;37084;55.228;36.450;2023-04-06T00:09:30;11.68;;;5.00;;
51048;SDS011;37084;55.228;36.450;2023-04-06T00:12:32;15.02;;;5.80;;
51048;SDS011;37084;55.228;36.450;2023-04-06T00:15:33;9.68;;;5.15;;
51048;SDS011;37084;55.228;36.450;2023-04-06T00:18:35;12.07;;;6.03;;
51048;SDS011;37084;55.228;36.450;2023-04-06T00:21:36;10.27;;;5.15;;
51048;SDS011;37084;55.228;36.450;2023-04-06T00:24:37;14.43;;;5.45;;
51048;SDS011;37084;55.228;36.450;2023-04-06T00:27:39;11.18;;;4.70;;
51048;SDS011;37084;55.228;36.450;2023-04-06T00:30:40;9.73;;;5.40;;
51048;SDS011;37084;55.228;36.450;2023-04-06T00:33:42;8.15;;;4.95;;
51048;SDS011;37084;55.228;36.450;2023-04-06T00:36:43;10.23;;;4.93;;
51048;SDS011;37084;55.228;36.450;2023-04-06T00:39:44;8.77;;;5.40;;
51048;SDS011;37084;55.228;36.450;2023-04-06T00:42:46;9.88;;;5.13;;
51048;SDS011;37084;55.228;36.450;2023-04-06T00:45:48;10.93;;;5.15;;
51048;SDS011;37084;55.228;36.450;2023-04-06T00:48:49;11.85;;;5.55;;
51048;SDS011;37084;55.228;36.450;2023-04-06T00:51:50;10.77;;;5.60;;
51048;SDS011;37084;55.228;36.450;2023-04-06T00:54:52;10.10;;;4.75;;
51048;SDS011;37084;55.228;36.450;2023-04-06T00:57:56;8.95;;;5.22;;
51048;SDS011;37084;55.228;36.450;2023-04-06T01:00:58;11.48;;;5.30;;
51048;SDS011;37084;55.228;36.450;2023-04-06T01:04:01;10.98;;;5.35;;
51048;SDS011;37084;55.228;36.450;2023-04-06T01:07:06;10.48;;;4.72;;
51048;SDS011;37084;55.228;36.450;2023-04-06T01:10:22;8.60;;;4.72;;
51048;SDS011;37084;55.228;36.450;2023-04-06T01:13:26;10.00;;;4.97;;
51048;SDS011;37084;55.228;36.450;2023-04-06T01:16:31;8.73;;;4.53;;
51048;SDS011;37084;55.228;36.450;2023-04-06T01:19:53;12.25;;;5.00;;
51048;SDS011;37084;55.228;36.450;2023-04-06T01:23:00;11.50;;;5.47;;
51048;SDS011;37084;55.228;36.450;2023-04-06T01:26:03;13.70;;;5.43;;
51048;SDS011;37084;55.228;36.450;2023-04-06T01:29:05;13.65;;;5.90;;
51048;SDS011;37084;55.228;36.450;2023-04-06T01:32:07;9.45;;;5.72;;
51048;SDS011;37084;55.228;36.450;2023-04-06T01:35:15;11.40;;;5.60;;
51048;SDS011;37084;55.228;36.450;2023-04-06T01:38:27;9.98;;;5.55;;
51048;SDS011;37084;55.228;36.450;2023-04-06T01:41:29;10.10;;;5.72;;
51048;SDS011;37084;55.228;36.450;2023-04-06T01:44:31;10.70;;;5.05;;
51048;SDS011;37084;55.228;36.450;2023-04-06T01:47:41;9.68;;;5.15;;
51048;SDS011;37084;55.228;36.450;2023-04-06T01:50:42;12.30;;;5.78;;
51048;SDS011;37084;55.228;36.450;2023-04-06T01:53:47;10.27;;;5.03;;
51048;SDS011;37084;55.228;36.450;2023-04-06T01:56:51;10.68;;;5.20;;
51048;SDS011;37084;55.228;36.450;2023-04-06T02:00:25;14.43;;;6.10;;
51048;SDS011;37084;55.228;36.450;2023-04-06T02:03:29;10.48;;;5.78;;
51048;SDS011;37084;55.228;36.450;2023-04-06T02:06:39;12.88;;;6.38;;
51048;SDS011;37084;55.228;36.450;2023-04-06T02:09:42;10.32;;;4.90;;
51048;SDS011;37084;55.228;36.450;2023-04-06T02:12:50;9.60;;;5.07;;
51048;SDS011;37084;55.228;36.450;2023-04-06T02:15:58;9.85;;;4.95;;
51048;SDS011;37084;55.228;36.450;2023-04-06T02:19:01;11.18;;;5.28;;
51048;SDS011;37084;55.228;36.450;2023-04-06T02:22:02;8.48;;;5.00;;
51048;SDS011;37084;55.228;36.450;2023-04-06T02:25:04;11.50;;;4.88;;
51048;SDS011;37084;55.228;36.450;2023-04-06T02:28:05;12.57;;;5.30;;
51048;SDS011;37084;55.228;36.450;2023-04-06T02:31:07;10.80;;;5.30;;
51048;SDS011;37084;55.228;36.450;2023-04-06T02:34:08;10.93;;;5.15;;
51048;SDS011;37084;55.228;36.450;2023-04-06T02:37:15;9.88;;;5.20;;
51048;SDS011;37084;55.228;36.450;2023-04-06T02:40:17;10.98;;;5.60;;
51048;SDS011;37084;55.228;36.450;2023-04-06T02:43:19;9.85;;;5.28;;
51048;SDS011;37084;55.228;36.450;2023-04-06T02:46:20;8.82;;;5.63;;
51048;SDS011;37084;55.228;36.450;2023-04-06T02:49:22;10.68;;;5.47;;
51048;SDS011;37084;55.228;36.450;2023-04-06T02:52:27;10.98;;;5.15;;
51048;SDS011;37084;55.228;36.450;2023-04-06T02:55:28;9.88;;;5.07;;
51048;SDS011;37084;55.228;36.450;2023-04-06T02:58:30;11.43;;;5.63;;
51048;SDS011;37084;55.228;36.450;2023-04-06T03:01:32;11.18;;;6.07;;
51048;SDS011;37084;55.228;36.450;2023-04-06T03:04:38;10.80;;;5.28;;
51048;SDS011;37084;55.228;36.450;2023-04-06T03:07:44;11.50;;;5.45;;
51048;SDS011;37084;55.228;36.450;2023-04-06T03:10:53;11.65;;;6.22;;
51048;SDS011;37084;55.228;36.450;2023-04-06T03:13:56;13.00;;;5.40;;
51048;SDS011;37084;55.228;36.450;2023-04-06T03:16:57;9.80;;;5.32;;
51048;SDS011;37084;55.228;36.450;2023-04-06T03:19:59;11.93;;;5.85;;
51048;SDS011;37084;55.228;36.450;2023-04-06T03:23:03;10.57;;;5.70;;
51048;SDS011;37084;55.228;36.450;2023-04-06T03:26:12;11.27;;;5.43;;
51048;SDS011;37084;55.228;36.450;2023-04-06T03:29:13;16.33;;;6.78;;
51048;SDS011;37084;55.228;36.450;2023-04-06T03:32:15;14.18;;;6.78;;
51048;SDS011;37084;55.228;36.450;2023-04-06T03:35:16;10.38;;;5.22;;
51048;SDS011;37084;55.228;36.450;2023-04-06T03:38:18;9.45;;;5.72;;
51048;SDS011;37084;55.228;36.450;2023-04-06T03:41:20;12.32;;;6.30;;
51048;SDS011;37084;55.228;36.450;2023-04-06T03:44:30;13.20;;;6.60;;
51048;SDS011;37084;55.228;36.450;2023-04-06T03:47:31;12.05;;;5.72;;
51048;SDS011;37084;55.228;36.450;2023-04-06T03:50:37;13.52;;;6.55;;
51048;SDS011;37084;55.228;36.450;2023-04-06T03:53:39;11.00;;;6.10;;
51048;SDS011;37084;55.228;36.450;2023-04-06T03:56:41;12.20;;;6.22;;
51048;SDS011;37084;55.228;36.450;2023-04-06T03:59:42;11.82;;;6.18;;
51048;SDS011;37084;55.228;36.450;2023-04-06T04:02:43;10.73;;;6.05;;
51048;SDS011;37084;55.228;36.450;2023-04-06T04:05:45;15.65;;;6.88;;
51048;SDS011;37084;55.228;36.450;2023-04-06T04:08:46;10.65;;;5.60;;
51048;SDS011;37084;55.228;36.450;2023-04-06T04:11:48;13.00;;;6.05;;
51048;SDS011;37084;55.228;36.450;2023-04-06T04:14:49;13.90;;;6.05;;
51048;SDS011;37084;55.228;36.450;2023-04-06T04:17:50;10.32;;;6.05;;
51048;SDS011;37084;55.228;36.450;2023-04-06T04:20:52;12.32;;;5.03;;
51048;SDS011;37084;55.228;36.450;2023-04-06T04:23:56;12.25;;;5.85;;
51048;SDS011;37084;55.228;36.450;2023-04-06T04:26:57;14.02;;;5.80;;
51048;SDS011;37084;55.228;36.450;2023-04-06T04:29:59;10.52;;;5.85;;
51048;SDS011;37084;55.228;36.450;2023-04-06T04:33:00;10.60;;;5.38;;
51048;SDS011;37084;55.228;36.450;2023-04-06T04:36:02;7.72;;;5.03;;
51048;SDS011;37084;55.228;36.450;2023-04-06T04:39:11;10.55;;;6.15;;
51048;SDS011;37084;55.228;36.450;2023-04-06T04:42:17;10.77;;;5.70;;
51048;SDS011;37084;55.228;36.450;2023-04-06T04:45:24;14.50;;;6.63;;
51048;SDS011;37084;55.228;36.450;2023-04-06T04:48:27;10.32;;;5.38;;
51048;SDS011;37084;55.228;36.450;2023-04-06T04:51:35;10.70;;;5.90;;
51048;SDS011;37084;55.228;36.450;2023-04-06T04:54:47;9.98;;;5.45;;
51048;SDS011;37084;55.228;36.450;2023-04-06T04:57:57;10.85;;;5.07;;
51048;SDS011;37084;55.228;36.450;2023-04-06T05:01:17;10.52;;;5.35;;
51048;SDS011;37084;55.228;36.450;2023-04-06T05:04:20;8.55;;;4.90;;
51048;SDS011;37084;55.228;36.450;2023-04-06T05:07:21;12.20;;;5.70;;
51048;SDS011;37084;55.228;36.450;2023-04-06T05:10:25;9.85;;;5.03;;
51048;SDS011;37084;55.228;36.450;2023-04-06T05:13:31;8.90;;;4.72;;
51048;SDS011;37084;55.228;36.450;2023-04-06T05:16:34;9.80;;;5.68;;
51048;SDS011;37084;55.228;36.450;2023-04-06T05:19:36;7.88;;;4.75;;
51048;SDS011;37084;55.228;36.450;2023-04-06T05:22:38;7.57;;;4.68;;
51048;SDS011;37084;55.228;36.450;2023-04-06T05:25:43;9.10;;;5.07;;
51048;SDS011;37084;55.228;36.450;2023-04-06T05:29:04;9.10;;;5.15;;
51048;SDS011;37084;55.228;36.450;2023-04-06T05:32:45;8.82;;;4.47;;
51048;SDS011;37084;55.228;36.450;2023-04-06T05:35:48;8.10;;;4.53;;
51048;SDS011;37084;55.228;36.450;2023-04-06T05:38:49;7.10;;;4.65;;
51048;SDS011;37084;55.228;36.450;2023-04-06T05:42:08;9.13;;;4.75;;
51048;SDS011;37084;55.228;36.450;2023-04-06T05:45:22;9.30;;;4.70;;
51048;SDS011;37084;55.228;36.450;2023-04-06T05:48:28;9.07;;;5.53;;
51048;SDS011;37084;55.228;36.450;2023-04-06T05:51:33;7.97;;;4.38;;
51048;SDS011;37084;55.228;36.450;2023-04-06T05:54:35;9.82;;;4.63;;
51048;SDS011;37084;55.228;36.450;2023-04-06T05:57:37;8.95;;;4.72;;
51048;SDS011;37084;55.228;36.450;2023-04-06T06:00:39;9.77;;;4.93;;
51048;SDS011;37084;55.228;36.450;2023-04-06T06:03:42;8.85;;;4.10;;
51048;SDS011;37084;55.228;36.450;2023-04-06T06:06:44;7.93;;;5.03;;
51048;SDS011;37084;55.228;36.450;2023-04-06T06:09:57;9.55;;;4.90;;
51048;SDS011;37084;55.228;36.450;2023-04-06T06:13:04;5.90;;;4.18;;
51048;SDS011;37084;55.228;36.450;2023-04-06T06:16:06;9.13;;;4.68;;
51048;SDS011;37084;55.228;36.450;2023-04-06T06:19:13;9.48;;;4.68;;
51048;SDS011;37084;55.228;36.450;2023-04-06T06:22:15;7.05;;;4.03;;
51048;SDS011;37084;55.228;36.450;2023-04-06T06:25:19;7.50;;;4.32;;
51048;SDS011;37084;55.228;36.450;2023-04-06T06:28:23;7.47;;;4.28;;
51048;SDS011;37084;55.228;36.450;2023-04-06T06:31:26;7.57;;;4.32;;
51048;SDS011;37084;55.228;36.450;2023-04-06T06:34:29;9.98;;;4.10;;
51048;SDS011;37084;55.228;36.450;2023-04-06T06:37:35;5.80;;;3.88;;
51048;SDS011;37084;55.228;36.450;2023-04-06T06:40:41;7.18;;;3.95;;
51048;SDS011;37084;55.228;36.450;2023-04-06T06:43:44;10.13;;;4.25;;
51048;SDS011;37084;55.228;36.450;2023-04-06T06:46:46;7.93;;;3.40;;
51048;SDS011;37084;55.228;36.450;2023-04-06T06:49:48;9.48;;;4.25;;
51048;SDS011;37084;55.228;36.450;2023-04-06T06:52:49;5.72;;;3.45;;
51048;SDS011;37084;55.228;36.450;2023-04-06T06:55:52;7.25;;;3.35;;
51048;SDS011;37084;55.228;36.450;2023-04-06T06:58:54;7.22;;;3.75;;
51048;SDS011;37084;55.228;36.450;2023-04-06T07:01:57;6.55;;;3.50;;
51048;SDS011;37084;55.228;36.450;2023-04-06T07:05:03;7.30;;;3.58;;
51048;SDS011;37084;55.228;36.450;2023-04-06T07:08:05;7.38;;;3.20;;
51048;SDS011;37084;55.228;36.450;2023-04-06T07:11:18;6.35;;;3.58;;
51048;SDS011;37084;55.228;36.450;2023-04-06T07:14:25;6.13;;;3.65;;
51048;SDS011;37084;55.228;36.450;2023-04-06T07:17:27;5.55;;;3.33;;
51048;SDS011;37084;55.228;36.450;2023-04-06T07:20:28;5.32;;;3.92;;
51048;SDS011;37084;55.228;36.450;2023-04-06T07:23:30;17.10;;;4.43;;
51048;SDS011;37084;55.228;36.450;2023-04-06T07:26:31;6.75;;;3.35;;
51048;SDS011;37084;55.228;36.450;2023-04-06T07:29:32;6.40;;;3.90;;
51048;SDS011;37084;55.228;36.450;2023-04-06T07:32:35;7.38;;;3.28;;
51048;SDS011;37084;55.228;36.450;2023-04-06T07:35:38;4.70;;;3.25;;
51048;SDS011;37084;55.228;36.450;2023-04-06T07:38:41;6.07;;;3.58;;
51048;SDS011;37084;55.228;36.450;2023-04-06T07:41:45;5.05;;;3.35;;
51048;SDS011;37084;55.228;36.450;2023-04-06T07:44:50;4.88;;;3.55;;
51048;SDS011;37084;55.228;36.450;2023-04-06T07:47:53;7.32;;;3.22;;
51048;SDS011;37084;55.228;36.450;2023-04-06T07:51:02;7.32;;;3.30;;
51048;SDS011;37084;55.228;36.450;2023-04-06T07:54:04;7.50;;;3.78;;
51048;SDS011;37084;55.228;36.450;2023-04-06T08:00:37;5.68;;;3.35;;
51048;SDS011;37084;55.228;36.450;2023-04-06T08:03:39;9.27;;;3.47;;
51048;SDS011;37084;55.228;36.450;2023-04-06T08:10:37;6.53;;;3.38;;
51048;SDS011;37084;55.228;36.450;2023-04-06T08:13:39;6.57;;;3.35;;
51048;SDS011;37084;55.228;36.450;2023-04-06T08:16:41;8.90;;;3.40;;
51048;SDS011;37084;55.228;36.450;2023-04-06T08:19:45;5.03;;;2.78;;
51048;SDS011;37084;55.228;36.450;2023-04-06T08:22:46;4.57;;;3.03;;
51048;SDS011;37084;55.228;36.450;2023-04-06T08:25:47;6.28;;;3.33;;
51048;SDS011;37084;55.228;36.450;2023-04-06T08:28:49;6.40;;;2.92;;
51048;SDS011;37084;55.228;36.450;2023-04-06T08:35:18;5.95;;;3.13;;
51048;SDS011;37084;55.228;36.450;2023-04-06T08:38:21;8.05;;;2.88;;
51048;SDS011;37084;55.228;36.450;2023-04-06T08:41:22;6.95;;;3.10;;
51048;SDS011;37084;55.228;36.450;2023-04-06T08:44:25;5.60;;;2.97;;
51048;SDS011;37084;55.228;36.450;2023-04-06T08:47:26;5.43;;;2.50;;
51048;SDS011;37084;55.228;36.450;2023-04-06T08:50:32;5.40;;;2.72;;
51048;SDS011;37084;55.228;36.450;2023-04-06T08:53:35;5.97;;;2.97;;
51048;SDS011;37084;55.228;36.450;2023-04-06T08:56:38;8.55;;;3.40;;
51048;SDS011;37084;55.228;36.450;2023-04-06T08:59:41;5.97;;;2.95;;
51048;SDS011;37084;55.228;36.450;2023-04-06T09:02:45;4.25;;;2.53;;
51048;SDS011;37084;55.228;36.450;2023-04-06T09:05:48;5.57;;;2.60;;
51048;SDS011;37084;55.228;36.450;2023-04-06T09:08:50;5.32;;;2.70;;
51048;SDS011;37084;55.228;36.450;2023-04-06T09:11:52;6.15;;;3.13;;
51048;SDS011;37084;55.228;36.450;2023-04-06T09:14:58;9.85;;;3.30;;
51048;SDS011;37084;55.228;36.450;2023-04-06T09:18:02;7.78;;;2.78;;
51048;SDS011;37084;55.228;36.450;2023-04-06T09:24:41;5.40;;;3.08;;
51048;SDS011;37084;55.228;36.450;2023-04-06T09:27:46;5.30;;;2.85;;
51048;SDS011;37084;55.228;36.450;2023-04-06T09:30:48;5.75;;;3.10;;
51048;SDS011;37084;55.228;36.450;2023-04-06T09:33:51;5.63;;;3.28;;
51048;SDS011;37084;55.228;36.450;2023-04-06T09:36:54;4.72;;;2.90;;
51048;SDS011;37084;55.228;36.450;2023-04-06T09:40:05;7.18;;;2.60;;
51048;SDS011;37084;55.228;36.450;2023-04-06T09:43:09;4.18;;;2.25;;
51048;SDS011;37084;55.228;36.450;2023-04-06T09:46:15;8.40;;;2.60;;
51048;SDS011;37084;55.228;36.450;2023-04-06T09:49:18;9.25;;;3.03;;
51048;SDS011;37084;55.228;36.450;2023-04-06T09:52:23;9.43;;;2.72;;
51048;SDS011;37084;55.228;36.450;2023-04-06T09:55:42;5.32;;;3.28;;
51048;SDS011;37084;55.228;36.450;2023-04-06T09:58:51;7.47;;;2.72;;
51048;SDS011;37084;55.228;36.450;2023-04-06T10:01:58;3.47;;;2.47;;
51048;SDS011;37084;55.228;36.450;2023-04-06T10:05:05;9.60;;;2.80;;
51048;SDS011;37084;55.228;36.450;2023-04-06T10:08:19;6.65;;;2.47;;
51048;SDS011;37084;55.228;36.450;2023-04-06T10:11:32;6.00;;;2.15;;
51048;SDS011;37084;55.228;36.450;2023-04-06T10:14:36;6.32;;;2.63;;
51048;SDS011;37084;55.228;36.450;2023-04-06T10:17:41;5.18;;;2.50;;
51048;SDS011;37084;55.228;36.450;2023-04-06T10:24:17;8.73;;;2.85;;
51048;SDS011;37084;55.228;36.450;2023-04-06T10:27:26;7.80;;;2.85;;
51048;SDS011;37084;55.228;36.450;2023-04-06T10:30:29;10.13;;;2.60;;
51048;SDS011;37084;55.228;36.450;2023-04-06T10:33:30;6.45;;;2.92;;
51048;SDS011;37084;55.228;36.450;2023-04-06T10:36:32;4.55;;;2.78;;
51048;SDS011;37084;55.228;36.450;2023-04-06T10:39:34;7.00;;;4.25;;
51048;SDS011;37084;55.228;36.450;2023-04-06T10:42:38;8.38;;;3.65;;
51048;SDS011;37084;55.228;36.450;2023-04-06T10:45:40;7.18;;;3.55;;
51048;SDS011;37084;55.228;36.450;2023-04-06T10:48:44;8.15;;;3.00;;
51048;SDS011;37084;55.228;36.450;2023-04-06T10:51:50;7.28;;;2.95;;
51048;SDS011;37084;55.228;36.450;2023-04-06T10:54:55;8.95;;;3.63;;
51048;SDS011;37084;55.228;36.450;2023-04-06T10:57:57;6.63;;;3.15;;
51048;SDS011;37084;55.228;36.450;2023-04-06T11:00:58;6.50;;;2.80;;
51048;SDS011;37084;55.228;36.450;2023-04-06T11:04:00;10.48;;;3.20;;
51048;SDS011;37084;55.228;36.450;2023-04-06T11:07:01;5.25;;;2.65;;
51048;SDS011;37084;55.228;36.450;2023-04-06T11:10:03;9.18;;;2.95;;
51048;SDS011;37084;55.228;36.450;2023-04-06T11:13:04;5.35;;;3.35;;
51048;SDS011;37084;55.228;36.450;2023-04-06T11:16:22;6.47;;;3.13;;
51048;SDS011;37084;55.228;36.450;2023-04-06T11:22:36;6.82;;;3.70;;
51048;SDS011;37084;55.228;36.450;2023-04-06T11:25:52;8.38;;;3.45;;
51048;SDS011;37084;55.228;36.450;2023-04-06T11:28:54;7.55;;;3.22;;
51048;SDS011;37084;55.228;36.450;2023-04-06T11:34:59;6.75;;;3.45;;
51048;SDS011;37084;55.228;36.450;2023-04-06T11:38:02;6.95;;;3.58;;
51048;SDS011;37084;55.228;36.450;2023-04-06T11:41:05;7.28;;;3.53;;
51048;SDS011;37084;55.228;36.450;2023-04-06T11:44:07;9.20;;;2.58;;
51048;SDS011;37084;55.228;36.450;2023-04-06T11:47:09;6.00;;;2.90;;
51048;SDS011;37084;55.228;36.450;2023-04-06T11:50:11;9.52;;;3.00;;
51048;SDS011;37084;55.228;36.450;2023-04-06T11:53:14;9.40;;;3.53;;
51048;SDS011;37084;55.228;36.450;2023-04-06T11:56:24;6.90;;;3.45;;
51048;SDS011;37084;55.228;36.450;2023-04-06T11:59:27;5.53;;;3.05;;
51048;SDS011;37084;55.228;36.450;2023-04-06T12:02:28;5.50;;;2.67;;
51048;SDS011;37084;55.228;36.450;2023-04-06T12:05:29;6.85;;;3.03;;
51048;SDS011;37084;55.228;36.450;2023-04-06T12:08:30;9.38;;;2.88;;
51048;SDS011;37084;55.228;36.450;2023-04-06T12:11:31;8.00;;;3.10;;
51048;SDS011;37084;55.228;36.450;2023-04-06T12:14:33;7.25;;;3.42;;
51048;SDS011;37084;55.228;36.450;2023-04-06T12:17:34;9.25;;;3.35;;
51048;SDS011;37084;55.228;36.450;2023-04-06T12:20:37;6.50;;;3.10;;
51048;SDS011;37084;55.228;36.450;2023-04-06T12:23:38;8.90;;;3.28;;
51048;SDS011;37084;55.228;36.450;2023-04-06T12:26:40;8.02;;;2.83;;
51048;SDS011;37084;55.228;36.450;2023-04-06T12:29:42;12.82;;;2.95;;
51048;SDS011;37084;55.228;36.450;2023-04-06T12:32:43;5.47;;;3.13;;
51048;SDS011;37084;55.228;36.450;2023-04-06T12:35:45;9.13;;;3.38;;
51048;SDS011;37084;55.228;36.450;2023-04-06T12:38:49;6.05;;;2.90;;
51048;SDS011;37084;55.228;36.450;2023-04-06T12:41:52;7.78;;;3.13;;
51048;SDS011;37084;55.228;36.450;2023-04-06T12:44:53;8.70;;;2.85;;
51048;SDS011;37084;55.228;36.450;2023-04-06T12:47:54;9.40;;;3.28;;
51048;SDS011;37084;55.228;36.450;2023-04-06T12:50:57;5.63;;;2.72;;
51048;SDS011;37084;55.228;36.450;2023-04-06T12:54:02;6.22;;;2.60;;
51048;SDS011;37084;55.228;36.450;2023-04-06T12:57:03;9.10;;;2.63;;
51048;SDS011;37084;55.228;36.450;2023-04-06T13:00:05;6.07;;;2.95;;
51048;SDS011;37084;55.228;36.450;2023-04-06T13:03:06;6.93;;;2.97;;
51048;SDS011;37084;55.228;36.450;2023-04-06T13:06:08;9.18;;;2.63;;
51048;SDS011;37084;55.228;36.450;2023-04-06T13:09:09;4.93;;;2.92;;
51048;SDS011;37084;55.228;36.450;2023-04-06T13:12:10;5.57;;;3.15;;
51048;SDS011;37084;55.228;36.450;2023-04-06T13:15:11;7.88;;;3.63;;
51048;SDS011;37084;55.228;36.450;2023-04-06T13:18:12;6.20;;;2.88;;
51048;SDS011;37084;55.228;36.450;2023-04-06T13:21:14;5.43;;;2.72;;
51048;SDS011;37084;55.228;36.450;2023-04-06T13:24:16;7.50;;;3.80;;
51048;SDS011;37084;55.228;36.450;2023-04-06T13:27:18;7.55;;;3.10;;
51048;SDS011;37084;55.228;36.450;2023-04-06T13:30:20;6.22;;;2.97;;
51048;SDS011;37084;55.228;36.450;2023-04-06T13:33:21;5.30;;;2.35;;
51048;SDS011;37084;55.228;36.450;2023-04-06T13:36:23;9.60;;;3.22;;
51048;SDS011;37084;55.228;36.450;2023-04-06T13:39:24;7.20;;;3.15;;
51048;SDS011;37084;55.228;36.450;2023-04-06T13:42:26;6.32;;;2.88;;
51048;SDS011;37084;55.228;36.450;2023-04-06T13:45:27;7.63;;;3.45;;
51048;SDS011;37084;55.228;36.450;2023-04-06T13:48:28;6.78;;;3.00;;
51048;SDS011;37084;55.228;36.450;2023-04-06T13:51:30;8.02;;;3.03;;
51048;SDS011;37084;55.228;36.450;2023-04-06T13:54:31;6.25;;;2.75;;
51048;SDS011;37084;55.228;36.450;2023-04-06T13:57:32;6.13;;;3.58;;
51048;SDS011;37084;55.228;36.450;2023-04-06T14:00:33;4.35;;;2.40;;
51048;SDS011;37084;55.228;36.450;2023-04-06T14:03:35;8.27;;;3.05;;
51048;SDS011;37084;55.228;36.450;2023-04-06T14:06:36;5.38;;;2.53;;
51048;SDS011;37084;55.228;36.450;2023-04-06T14:09:37;8.18;;;3.00;;
51048;SDS011;37084;55.228;36.450;2023-04-06T14:12:42;6.72;;;2.67;;
51048;SDS011;37084;55.228;36.450;2023-04-06T14:15:44;3.85;;;2.25;;
51048;SDS011;37084;55.228;36.450;2023-04-06T14:18:45;5.72;;;2.58;;
51048;SDS011;37084;55.228;36.450;2023-04-06T14:21:47;6.70;;;2.78;;
51048;SDS011;37084;55.228;36.450;2023-04-06T14:24:49;6.07;;;2.42;;
51048;SDS011;37084;55.228;36.450;2023-04-06T14:27:50;6.35;;;2.72;;
51048;SDS011;37084;55.228;36.450;2023-04-06T14:30:51;5.80;;;3.90;;
51048;SDS011;37084;55.228;36.450;2023-04-06T14:33:52;4.63;;;2.40;;
51048;SDS011;37084;55.228;36.450;2023-04-06T14:36:53;5.00;;;2.80;;
51048;SDS011;37084;55.228;36.450;2023-04-06T14:39:55;9.25;;;3.15;;
51048;SDS011;37084;55.228;36.450;2023-04-06T14:42:57;8.27;;;2.80;;
51048;SDS011;37084;55.228;36.450;2023-04-06T14:46:01;10.30;;;2.75;;
51048;SDS011;37084;55.228;36.450;2023-04-06T14:49:02;8.65;;;2.65;;
51048;SDS011;37084;55.228;36.450;2023-04-06T14:52:05;7.38;;;3.58;;
51048;SDS011;37084;55.228;36.450;2023-04-06T14:55:39;5.28;;;2.83;;
51048;SDS011;37084;55.228;36.450;2023-04-06T14:58:44;11.00;;;2.60;;
51048;SDS011;37084;55.228;36.450;2023-04-06T15:01:46;8.93;;;2.75;;
51048;SDS011;37084;55.228;36.450;2023-04-06T15:04:47;5.80;;;2.42;;
51048;SDS011;37084;55.228;36.450;2023-04-06T15:07:49;5.65;;;2.28;;
51048;SDS011;37084;55.228;36.450;2023-04-06T15:10:51;5.35;;;2.15;;
51048;SDS011;37084;55.228;36.450;2023-04-06T15:13:52;5.28;;;2.50;;
51048;SDS011;37084;55.228;36.450;2023-04-06T15:16:53;6.00;;;2.35;;
51048;SDS011;37084;55.228;36.450;2023-04-06T15:19:55;6.80;;;2.40;;
51048;SDS011;37084;55.228;36.450;2023-04-06T15:22:56;6.53;;;3.47;;
51048;SDS011;37084;55.228;36.450;2023-04-06T15:25:57;8.77;;;2.28;;
51048;SDS011;37084;55.228;36.450;2023-04-06T15:28:59;5.90;;;2.13;;
51048;SDS011;37084;55.228;36.450;2023-04-06T15:32:01;6.78;;;2.65;;
51048;SDS011;37084;55.228;36.450;2023-04-06T15:35:09;6.70;;;2.50;;
51048;SDS011;37084;55.228;36.450;2023-04-06T15:38:11;6.13;;;2.33;;
51048;SDS011;37084;55.228;36.450;2023-04-06T15:41:12;4.80;;;2.05;;
51048;SDS011;37084;55.228;36.450;2023-04-06T15:44:14;6.82;;;2.25;;
51048;SDS011;37084;55.228;36.450;2023-04-06T15:47:15;9.35;;;2.45;;
51048;SDS011;37084;55.228;36.450;2023-04-06T15:50:16;10.30;;;3.58;;
51048;SDS011;37084;55.228;36.450;2023-04-06T15:53:19;7.72;;;2.65;;
51048;SDS011;37084;55.228;36.450;2023-04-06T15:56:20;6.30;;;2.63;;
51048;SDS011;37084;55.228;36.450;2023-04-06T15:59:21;9.98;;;3.15;;
51048;SDS011;37084;55.228;36.450;2023-04-06T16:02:22;10.32;;;3.08;;
51048;SDS011;37084;55.228;36.450;2023-04-06T16:05:24;7.13;;;2.92;;
51048;SDS011;37084;55.228;36.450;2023-04-06T16:08:25;10.38;;;3.45;;
51048;SDS011;37084;55.228;36.450;2023-04-06T16:11:26;6.70;;;2.80;;
51048;SDS011;37084;55.228;36.450;2023-04-06T16:14:28;4.20;;;2.78;;
51048;SDS011;37084;55.228;36.450;2023-04-06T16:17:29;7.65;;;2.88;;
51048;SDS011;37084;55.228;36.450;2023-04-06T16:20:30;6.75;;;3.03;;
51048;SDS011;37084;55.228;36.450;2023-04-06T16:23:31;7.13;;;3.08;;
51048;SDS011;37084;55.228;36.450;2023-04-06T16:26:33;10.63;;;3.15;;
51048;SDS011;37084;55.228;36.450;2023-04-06T16:29:35;8.23;;;2.75;;
51048;SDS011;37084;55.228;36.450;2023-04-06T16:32:36;6.50;;;2.50;;
51048;SDS011;37084;55.228;36.450;2023-04-06T16:35:45;5.93;;;2.78;;
51048;SDS011;37084;55.228;36.450;2023-04-06T16:38:46;7.50;;;2.40;;
51048;SDS011;37084;55.228;36.450;2023-04-06T16:41:47;12.43;;;2.78;;
51048;SDS011;37084;55.228;36.450;2023-04-06T16:44:48;5.47;;;2.53;;
51048;SDS011;37084;55.228;36.450;2023-04-06T16:47:49;6.03;;;2.42;;
51048;SDS011;37084;55.228;36.450;2023-04-06T16:50:51;10.02;;;2.85;;
51048;SDS011;37084;55.228;36.450;2023-04-06T16:53:52;5.78;;;2.50;;
51048;SDS011;37084;55.228;36.450;2023-04-06T16:56:53;7.60;;;2.83;;
51048;SDS011;37084;55.228;36.450;2023-04-06T16:59:55;6.47;;;3.05;;
51048;SDS011;37084;55.228;36.450;2023-04-06T17:02:58;8.95;;;3.10;;
51048;SDS011;37084;55.228;36.450;2023-04-06T17:06:00;8.52;;;3.38;;
51048;SDS011;37084;55.228;36.450;2023-04-06T17:09:01;8.07;;;3.00;;
51048;SDS011;37084;55.228;36.450;2023-04-06T17:12:02;5.93;;;2.90;;
51048;SDS011;37084;55.228;36.450;2023-04-06T17:15:04;9.43;;;2.72;;
51048;SDS011;37084;55.228;36.450;2023-04-06T17:18:05;6.35;;;2.95;;
51048;SDS011;37084;55.228;36.450;2023-04-06T17:21:07;5.88;;;3.35;;
51048;SDS011;37084;55.228;36.450;2023-04-06T17:24:10;5.88;;;2.92;;
51048;SDS011;37084;55.228;36.450;2023-04-06T17:27:11;7.50;;;2.88;;
51048;SDS011;37084;55.228;36.450;2023-04-06T17:30:13;9.10;;;2.88;;
51048;SDS011;37084;55.228;36.450;2023-04-06T17:33:14;7.13;;;3.25;;
51048;SDS011;37084;55.228;36.450;2023-04-06T17:36:16;4.88;;;2.90;;
51048;SDS011;37084;55.228;36.450;2023-04-06T17:39:17;6.85;;;3.80;;
51048;SDS011;37084;55.228;36.450;2023-04-06T17:42:19;7.90;;;3.20;;
51048;SDS011;37084;55.228;36.450;2023-04-06T17:45:20;9.60;;;3.15;;
51048;SDS011;37084;55.228;36.450;2023-04-06T17:48:21;7.55;;;3.08;;
51048;SDS011;37084;55.228;36.450;2023-04-06T17:51:22;5.90;;;2.78;;
51048;SDS011;37084;55.228;36.450;2023-04-06T17:54:25;10.13;;;2.97;;
51048;SDS011;37084;55.228;36.450;2023-04-06T17:57:26;7.65;;;2.72;;
51048;SDS011;37084;55.228;36.450;2023-04-06T18:00:27;6.18;;;2.72;;
51048;SDS011;37084;55.228;36.450;2023-04-06T18:03:29;4.57;;;2.42;;
51048;SDS011;37084;55.228;36.450;2023-04-06T18:06:30;5.78;;;3.17;;
51048;SDS011;37084;55.228;36.450;2023-04-06T18:09:32;6.45;;;2.53;;
51048;SDS011;37084;55.228;36.450;2023-04-06T18:12:33;4.10;;;2.40;;
51048;SDS011;37084;55.228;36.450;2023-04-06T18:15:34;5.65;;;2.45;;
51048;SDS011;37084;55.228;36.450;2023-04-06T18:18:37;5.13;;;2.50;;
51048;SDS011;37084;55.228;36.450;2023-04-06T18:21:38;7.88;;;2.50;;
51048;SDS011;37084;55.228;36.450;2023-04-06T18:24:40;9.77;;;2.35;;
51048;SDS011;37084;55.228;36.450;2023-04-06T18:27:42;5.55;;;2.25;;